This demonstration page uses our WeatherBlox Daily Observations layout. Learn more.

39.01783, -85.05884

Hourly Observations for July 9, 2019

Temp ( °F °C ) Dew Point ( °F °C ) Humidity (%) Winds ( mph kmh ) Pressure ( in mb ) Visibility ( mi km ) Precip ( " mm )
12:52 am 00:52 Mostly Clear 77 25 63 17.2 62 62 E 9 15 29.97 1015 10 16.09344 0 0
1:52 am 01:52 Clear 76 24.4 63 17.2 64 64 ENE 12 19 29.97 1015 10 16.09344 0 0
2:52 am 02:52 Clear 74 23.3 61 16.1 64 64 ENE 9 15 29.97 1015 10 16.09344 0 0
3:52 am 03:52 Clear 73 22.8 59 15 62 62 ENE 9 15 29.94 1014 10 16.09344 0 0
4:52 am 04:52 Clear 72 22.2 59 15 64 64 NE 8 13 29.97 1015 10 16.09344 0 0
5:52 am 05:52 Clear 71 21.7 59 15 66 66 NE 5 7 29.97 1015 10 16.09344 0 0
6:52 am 06:52 Sunny 71 21.7 58 14.4 63 63 E 8 13 30 1016 10 16.09344 0 0
7:52 am 07:52 Sunny 73 22.8 59 15 62 62 ENE 5 7 30 1016 10 16.09344 0 0
8:52 am 08:52 Sunny 76 24.4 59 15 56 56 Calm 30 1016 10 16.09344 0 0
9:52 am 09:52 Mostly Sunny 80 26.7 61 16.1 52 52 VRB 5 7 30 1016 10 16.09344 0 0
10:52 am 10:52 Mostly Sunny 83 28.3 63 17.2 51 51 VRB 5 7 30 1016 10 16.09344 0 0
11:52 am 11:52 Mostly Sunny 84 28.9 66 18.9 55 55 Calm 30 1016 10 16.09344 0 0
12:52 pm 12:52 Partly Cloudy 86 30 65 18.3 49 49 ESE 6 9 29.97 1015 10 16.09344 0 0
1:52 pm 13:52 Mostly Cloudy 88 31.1 64 17.8 45 45 ESE 5 7 29.97 1015 10 16.09344 0 0
2:52 pm 14:52 Mostly Cloudy 87 30.6 63 17.2 45 45 ESE 6 9 29.97 1015 10 16.09344 0 0
3:52 pm 15:52 Mostly Cloudy 87 30.6 63 17.2 45 45 VRB 5 7 29.94 1014 10 16.09344 0 0
4:52 pm 16:52 Partly Cloudy 88 31.1 62 16.7 42 42 Calm 29.94 1014 10 16.09344 0 0
5:52 pm 17:52 Mostly Sunny 87 30.6 64 17.8 46 46 W 3 6 29.94 1014 10 16.09344 0 0
6:52 pm 18:52 Mostly Sunny 89 31.7 65 18.3 45 45 S 10 17 29.94 1014 10 16.09344 0 0
7:52 pm 19:52 Partly Cloudy 87 30.6 65 18.3 48 48 W 5 7 29.94 1014 10 16.09344 0 0
8:52 pm 20:52 Partly Cloudy 83 28.3 66 18.9 57 57 W 3 6 29.94 1014 10 16.09344 0 0
9:52 pm 21:52 Partly Cloudy 80 26.7 66 18.9 62 62 W 3 6 29.94 1014 10 16.09344 0 0
10:52 pm 22:52 Mostly Clear 77 25 66 18.9 69 69 Calm 29.97 1015 10 16.09344 0 0
11:52 pm 23:52 Mostly Clear 76 24.4 65 18.3 69 69 Calm 29.97 1015 10 16.09344 0 0

Powered by AerisWeather